createdAt,value
2023-05-16T00:00:13.968Z,25.97
2023-05-16T00:01:13.930Z,26.68
2023-05-16T00:02:12.969Z,28.68
2023-05-16T00:03:14.010Z,27.99
2023-05-16T00:04:14.135Z,26.34
2023-05-16T00:05:13.920Z,26.48
2023-05-16T00:06:13.943Z,25.48
2023-05-16T00:07:13.950Z,27.11
2023-05-16T00:08:12.910Z,26.96
2023-05-16T00:09:13.912Z,26.50
2023-05-16T00:10:12.886Z,25.42
2023-05-16T00:11:12.883Z,27.63
2023-05-16T00:12:12.861Z,25.50
2023-05-16T00:13:13.866Z,26.77
2023-05-16T00:14:13.860Z,25.29
2023-05-16T00:15:12.855Z,27.18
2023-05-16T00:16:13.855Z,27.07
2023-05-16T00:17:13.905Z,27.18
2023-05-16T00:18:12.839Z,27.44
2023-05-16T00:19:13.893Z,27.33
2023-05-16T00:20:12.820Z,27.55
2023-05-16T00:21:13.848Z,27.03
2023-05-16T00:22:12.793Z,25.77
2023-05-16T00:23:12.859Z,26.20
2023-05-16T00:24:13.768Z,26.50
2023-05-16T00:25:12.746Z,26.47
2023-05-16T00:26:12.741Z,25.49
2023-05-16T00:27:12.773Z,25.09
2023-05-16T00:28:13.755Z,26.16
2023-05-16T00:29:13.764Z,25.79
2023-05-16T00:30:13.750Z,25.49
2023-05-16T00:31:13.706Z,26.80
2023-05-16T00:32:12.821Z,25.27
2023-05-16T00:33:13.736Z,26.36
2023-05-16T00:34:12.772Z,26.01
2023-05-16T00:35:12.804Z,27.93
2023-05-16T00:36:13.781Z,27.26
2023-05-16T00:37:13.811Z,27.02
2023-05-16T00:38:12.800Z,27.50
2023-05-16T00:39:12.843Z,27.27
2023-05-16T00:40:12.870Z,27.02
2023-05-16T00:41:13.925Z,26.03
2023-05-16T00:42:13.874Z,27.07
2023-05-16T00:43:13.889Z,26.93
2023-05-16T00:44:12.905Z,26.55
2023-05-16T00:45:13.917Z,26.35
2023-05-16T00:46:13.022Z,26.52
2023-05-16T00:47:13.928Z,25.72
2023-05-16T00:48:14.007Z,25.35
2023-05-16T00:49:12.944Z,26.77
2023-05-16T00:50:12.965Z,25.69
2023-05-16T00:51:12.986Z,26.49
2023-05-16T00:52:12.990Z,26.60
2023-05-16T00:53:13.031Z,26.41
2023-05-16T00:54:14.015Z,27.03
2023-05-16T00:55:14.052Z,26.45
2023-05-16T00:56:14.053Z,25.11
2023-05-16T00:57:14.054Z,26.68
2023-05-16T00:58:14.075Z,26.55
2023-05-16T00:59:14.072Z,27.58
2023-05-16T01:00:13.144Z,26.92
2023-05-16T01:01:14.170Z,25.78
2023-05-16T01:02:13.171Z,27.30
2023-05-16T01:03:14.196Z,26.85
2023-05-16T01:04:14.129Z,26.86
2023-05-16T01:05:13.139Z,27.36
2023-05-16T01:06:13.162Z,27.78
2023-05-16T01:07:13.158Z,27.98
2023-05-16T01:08:13.181Z,28.71
2023-05-16T01:09:14.184Z,27.85
2023-05-16T01:10:14.227Z,30.40
2023-05-16T01:11:14.249Z,27.83
2023-05-16T01:12:14.261Z,29.13
2023-05-16T01:13:13.244Z,28.30
2023-05-16T01:14:14.286Z,27.81
2023-05-16T01:15:13.279Z,28.05
2023-05-16T01:16:13.426Z,27.99
2023-05-16T01:17:13.309Z,26.61
2023-05-16T01:18:14.470Z,26.09
2023-05-16T01:19:14.394Z,26.75
2023-05-16T01:20:14.348Z,25.91
2023-05-16T01:21:13.401Z,25.02
2023-05-16T01:22:13.397Z,25.31
2023-05-16T01:23:13.434Z,27.84
2023-05-16T01:24:14.423Z,26.83
2023-05-16T01:25:14.438Z,25.94
2023-05-16T01:26:14.479Z,26.92
2023-05-16T01:27:14.515Z,26.00
2023-05-16T01:28:13.475Z,27.00
2023-05-16T01:29:13.577Z,26.23
2023-05-16T01:30:13.494Z,27.03
2023-05-16T01:31:14.576Z,26.31
2023-05-16T01:32:13.536Z,25.00
2023-05-16T01:33:14.630Z,25.89
2023-05-16T01:34:13.580Z,26.35
2023-05-16T01:35:14.582Z,25.42
2023-05-16T01:36:14.632Z,26.39
2023-05-16T01:37:14.638Z,26.19
2023-05-16T01:38:14.646Z,25.86
2023-05-16T01:39:14.670Z,25.23
2023-05-16T01:40:14.679Z,27.27
2023-05-16T01:41:14.717Z,26.89
2023-05-16T01:42:13.736Z,27.45
2023-05-16T01:43:14.778Z,26.16
2023-05-16T01:44:14.781Z,26.85
2023-05-16T01:45:14.802Z,26.93
2023-05-16T01:46:14.845Z,26.17
2023-05-16T01:47:13.940Z,26.26
2023-05-16T01:48:14.147Z,25.69
2023-05-16T01:49:14.871Z,27.22
2023-05-16T01:50:14.940Z,28.17
2023-05-16T01:51:13.916Z,27.70
2023-05-16T01:52:13.924Z,27.54
2023-05-16T01:53:13.958Z,27.69
2023-05-16T01:54:13.985Z,28.21
2023-05-16T01:55:15.005Z,26.50
2023-05-16T01:56:15.013Z,26.48
2023-05-16T01:57:15.029Z,25.09
2023-05-16T01:58:14.072Z,26.98
2023-05-16T01:59:14.102Z,25.00
2023-05-16T02:00:15.146Z,26.13
2023-05-16T02:01:15.183Z,25.60
2023-05-16T02:02:14.140Z,26.63
2023-05-16T02:03:14.308Z,26.74
2023-05-16T02:04:14.565Z,25.78
2023-05-16T02:05:15.199Z,25.75
2023-05-16T02:06:15.214Z,27.25
2023-05-16T02:07:15.246Z,25.47
2023-05-16T02:08:14.254Z,28.04
2023-05-16T02:09:15.278Z,28.15
2023-05-16T02:10:15.325Z,26.13
2023-05-16T02:11:14.325Z,28.03
2023-05-16T02:12:15.378Z,26.53
2023-05-16T02:13:15.618Z,25.00
2023-05-16T02:14:14.432Z,25.90
2023-05-16T02:15:14.444Z,25.46
2023-05-16T02:16:14.495Z,26.28
2023-05-16T02:17:15.463Z,27.35
2023-05-16T02:18:14.549Z,25.34
2023-05-16T02:19:14.587Z,25.69
2023-05-16T02:20:15.530Z,26.84
2023-05-16T02:21:14.561Z,25.36
2023-05-16T02:22:15.583Z,26.14
2023-05-16T02:23:15.593Z,27.96
2023-05-16T02:24:14.589Z,26.39
2023-05-16T02:25:15.634Z,26.39
2023-05-16T02:26:14.630Z,25.00
2023-05-16T02:27:14.672Z,26.50
2023-05-16T02:28:14.686Z,25.63
2023-05-16T02:29:14.704Z,25.64
2023-05-16T02:30:15.744Z,27.25
2023-05-16T02:31:14.831Z,26.48
2023-05-16T02:32:15.793Z,27.32
2023-05-16T02:33:14.789Z,27.35
2023-05-16T02:34:14.821Z,26.48
2023-05-16T02:35:14.830Z,25.62
2023-05-16T02:36:15.853Z,26.79
2023-05-16T02:37:14.888Z,25.00
2023-05-16T02:38:15.911Z,26.76
2023-05-16T02:39:14.927Z,26.06
2023-05-16T02:40:14.976Z,26.95
2023-05-16T02:41:14.972Z,25.48
2023-05-16T02:42:16.026Z,26.91
2023-05-16T02:43:16.032Z,27.44
2023-05-16T02:44:15.045Z,25.85
2023-05-16T02:45:15.102Z,26.38
2023-05-16T02:46:16.184Z,25.59
2023-05-16T02:47:16.217Z,26.63
2023-05-16T02:48:16.154Z,26.43
2023-05-16T02:49:15.189Z,26.41
2023-05-16T02:50:16.189Z,27.08
2023-05-16T02:51:16.217Z,28.08
2023-05-16T02:52:15.289Z,26.69
2023-05-16T02:53:16.275Z,26.70
2023-05-16T02:54:15.340Z,25.40
2023-05-16T02:55:22.360Z,25.07
2023-05-16T02:56:16.384Z,25.32
2023-05-16T02:57:15.324Z,25.61
2023-05-16T02:58:15.300Z,26.16
2023-05-16T02:59:16.299Z,26.63
2023-05-16T03:00:18.369Z,26.99
2023-05-16T03:01:15.318Z,29.97
2023-05-16T03:02:15.282Z,26.46
2023-05-16T03:03:16.390Z,26.86
2023-05-16T03:04:15.332Z,28.33
2023-05-16T03:05:15.249Z,26.99
2023-05-16T03:06:16.238Z,25.31
2023-05-16T03:07:16.243Z,25.80
2023-05-16T03:08:15.371Z,25.61
2023-05-16T03:09:16.222Z,25.14
2023-05-16T03:10:16.199Z,25.00
2023-05-16T03:11:15.215Z,27.39
2023-05-16T03:12:16.230Z,25.93
2023-05-16T03:13:16.196Z,27.47
2023-05-16T03:14:16.177Z,27.32
2023-05-16T03:15:15.175Z,26.72
2023-05-16T03:16:15.233Z,26.68
2023-05-16T03:17:15.162Z,25.76
2023-05-16T03:18:15.181Z,25.69
2023-05-16T03:19:15.174Z,25.31
2023-05-16T03:20:15.133Z,26.18
2023-05-16T03:21:15.172Z,26.52
2023-05-16T03:22:16.117Z,25.59
2023-05-16T03:23:15.111Z,27.35
2023-05-16T03:24:16.184Z,26.91
2023-05-16T03:25:15.109Z,25.83
2023-05-16T03:26:15.142Z,27.02
2023-05-16T03:27:16.118Z,27.56
2023-05-16T03:28:15.554Z,27.35
2023-05-16T03:29:15.097Z,25.36
2023-05-16T03:30:16.061Z,27.70
2023-05-16T03:31:15.207Z,25.56
2023-05-16T03:32:15.075Z,26.50
2023-05-16T03:33:15.107Z,27.39
2023-05-16T03:34:16.087Z,26.30
2023-05-16T03:35:15.055Z,27.01
2023-05-16T03:36:15.032Z,27.38
2023-05-16T03:37:16.117Z,27.22
2023-05-16T03:38:16.016Z,27.92
2023-05-16T03:39:16.024Z,27.58
2023-05-16T03:40:16.242Z,25.90
2023-05-16T03:41:15.093Z,25.93
2023-05-16T03:42:16.127Z,26.69
2023-05-16T03:43:15.180Z,25.00
2023-05-16T03:44:16.190Z,27.77
2023-05-16T03:45:15.222Z,25.40
2023-05-16T03:46:16.267Z,27.99
2023-05-16T03:47:16.272Z,28.31
2023-05-16T03:48:15.298Z,28.32
2023-05-16T03:49:16.332Z,26.57
2023-05-16T03:50:15.376Z,27.63
2023-05-16T03:51:16.377Z,26.45
2023-05-16T03:52:15.437Z,28.04
2023-05-16T03:53:16.487Z,27.76
2023-05-16T03:54:15.487Z,26.74
2023-05-16T03:55:15.559Z,26.40
2023-05-16T03:56:15.578Z,28.73
2023-05-16T03:57:16.641Z,27.62
2023-05-16T03:58:16.628Z,26.32
2023-05-16T03:59:15.660Z,29.21
2023-05-16T04:00:15.716Z,27.98
2023-05-16T04:01:15.745Z,26.39
2023-05-16T04:02:16.816Z,26.92
2023-05-16T04:03:16.831Z,26.98
2023-05-16T04:04:15.765Z,28.56
2023-05-16T04:05:16.860Z,27.62
2023-05-16T04:06:16.871Z,26.03
2023-05-16T04:07:15.767Z,25.72
2023-05-16T04:08:15.746Z,26.85
2023-05-16T04:09:16.726Z,27.30
2023-05-16T04:10:16.730Z,26.20
2023-05-16T04:11:15.716Z,26.31
2023-05-16T04:12:16.730Z,26.31
2023-05-16T04:13:16.720Z,27.82
2023-05-16T04:14:16.691Z,26.63
2023-05-16T04:15:16.694Z,27.80
2023-05-16T04:16:15.699Z,26.92
2023-05-16T04:17:15.912Z,27.51
2023-05-16T04:18:15.757Z,26.74
2023-05-16T04:19:16.760Z,27.57
2023-05-16T04:20:16.646Z,27.41
2023-05-16T04:21:16.650Z,27.54
2023-05-16T04:22:15.699Z,27.24
2023-05-16T04:23:15.645Z,27.82
2023-05-16T04:24:16.615Z,26.09
2023-05-16T04:25:16.603Z,25.55
2023-05-16T04:26:16.626Z,28.49
2023-05-16T04:27:16.625Z,25.69
2023-05-16T04:28:15.596Z,26.44
2023-05-16T04:29:15.593Z,27.10
2023-05-16T04:30:16.568Z,27.09
2023-05-16T04:31:16.796Z,28.37
2023-05-16T04:32:16.564Z,27.76
2023-05-16T04:33:16.568Z,26.12
2023-05-16T04:34:16.586Z,26.70
2023-05-16T04:35:16.610Z,26.93
2023-05-16T04:36:16.701Z,27.65
2023-05-16T04:37:15.686Z,26.77
2023-05-16T04:38:15.755Z,27.73
2023-05-16T04:39:16.765Z,28.15
2023-05-16T04:40:16.828Z,27.06
2023-05-16T04:41:16.836Z,26.09
2023-05-16T04:42:15.875Z,27.14
2023-05-16T04:43:15.914Z,27.29
2023-05-16T04:44:16.948Z,25.73
2023-05-16T04:45:16.042Z,28.58
2023-05-16T04:46:17.031Z,27.59
2023-05-16T04:47:17.048Z,29.15
2023-05-16T04:48:16.058Z,27.05
2023-05-16T04:49:16.090Z,29.23
2023-05-16T04:50:16.110Z,27.28
2023-05-16T04:51:16.175Z,28.43
2023-05-16T04:52:17.200Z,26.99
2023-05-16T04:53:16.205Z,28.25
2023-05-16T04:54:16.247Z,30.29
2023-05-16T04:55:17.264Z,31.24
2023-05-16T04:56:17.251Z,37.42
2023-05-16T04:57:17.268Z,48.36
2023-05-16T04:58:17.255Z,54.17
2023-05-16T04:59:17.258Z,57.59
2023-05-16T05:00:17.274Z,61.06
2023-05-16T05:01:17.361Z,62.99
2023-05-16T05:02:17.434Z,68.94
2023-05-16T05:03:17.579Z,75.67
2023-05-16T05:04:16.497Z,74.60
2023-05-16T05:05:16.669Z,75.87
2023-05-16T05:06:17.642Z,76.06
2023-05-16T05:07:17.705Z,78.36
2023-05-16T05:08:17.727Z,76.06
2023-05-16T05:09:17.782Z,77.75
2023-05-16T05:10:16.831Z,78.09
2023-05-16T05:11:16.870Z,81.51
2023-05-16T05:12:17.291Z,82.27
2023-05-16T05:13:17.963Z,82.08
2023-05-16T05:14:17.040Z,81.04
2023-05-16T05:15:18.066Z,81.17
2023-05-16T05:16:18.105Z,79.91
2023-05-16T05:17:18.175Z,81.74
2023-05-16T05:18:18.188Z,81.37
2023-05-16T05:19:18.228Z,79.38
2023-05-16T05:20:17.241Z,82.63
2023-05-16T05:21:18.267Z,84.68
2023-05-16T05:22:17.357Z,80.61
2023-05-16T05:23:17.352Z,78.25
2023-05-16T05:24:18.372Z,78.33
2023-05-16T05:25:18.439Z,76.24
2023-05-16T05:26:17.448Z,75.39
2023-05-16T05:27:18.469Z,75.47
2023-05-16T05:28:18.474Z,80.20
2023-05-16T05:29:17.480Z,77.41
2023-05-16T05:30:18.504Z,81.75
2023-05-16T05:31:17.571Z,81.43
2023-05-16T05:32:18.576Z,80.51
2023-05-16T05:33:17.605Z,83.38
2023-05-16T05:34:17.677Z,80.17
2023-05-16T05:35:18.620Z,80.12
2023-05-16T05:36:17.624Z,80.68
2023-05-16T05:37:17.689Z,76.21
2023-05-16T05:38:18.752Z,74.70
2023-05-16T05:39:18.745Z,73.87
2023-05-16T05:40:18.757Z,72.77
2023-05-16T05:41:17.811Z,68.98
2023-05-16T05:42:18.843Z,67.09
2023-05-16T05:43:18.866Z,67.36
2023-05-16T05:44:18.870Z,63.47
2023-05-16T05:45:17.867Z,65.80
2023-05-16T05:46:18.957Z,64.11
2023-05-16T05:47:17.898Z,65.90
2023-05-16T05:48:17.885Z,69.31
2023-05-16T05:49:17.887Z,68.25
2023-05-16T05:50:18.959Z,53.22
2023-05-16T05:51:17.964Z,44.47
2023-05-16T05:52:19.324Z,54.86
2023-05-16T05:53:19.051Z,50.51
2023-05-16T05:54:19.069Z,41.95
2023-05-16T05:55:19.071Z,38.80
2023-05-16T05:56:19.093Z,30.61
2023-05-16T05:57:19.103Z,29.40
2023-05-16T05:58:19.088Z,40.36
2023-05-16T05:59:19.103Z,44.49
2023-05-16T06:00:19.152Z,36.20
2023-05-16T06:01:18.144Z,37.87
2023-05-16T06:02:18.335Z,33.31
2023-05-16T06:03:19.183Z,34.47
2023-05-16T06:04:19.145Z,41.12
2023-05-16T06:05:18.260Z,47.99
2023-05-16T06:06:19.277Z,55.52
2023-05-16T06:07:19.329Z,61.24
2023-05-16T06:08:19.375Z,60.34
2023-05-16T06:09:19.374Z,65.37
2023-05-16T06:10:18.441Z,63.17
2023-05-16T06:11:18.385Z,67.57
2023-05-16T06:12:19.399Z,62.58
2023-05-16T06:13:19.412Z,62.25
2023-05-16T06:14:19.400Z,65.20
2023-05-16T06:15:19.539Z,71.23
2023-05-16T06:16:19.547Z,62.86
2023-05-16T06:17:19.607Z,70.37
2023-05-16T06:18:18.593Z,41.38
2023-05-16T06:19:18.721Z,23.35
2023-05-16T06:20:19.586Z,27.80
2023-05-16T06:21:18.626Z,25.00
2023-05-16T06:22:19.679Z,27.18
2023-05-16T06:23:21.064Z,33.60
2023-05-16T06:24:19.907Z,25.65
2023-05-16T06:25:19.994Z,25.00
2023-05-16T06:26:19.992Z,24.43
2023-05-16T06:27:20.019Z,23.96
2023-05-16T06:28:19.999Z,28.45
2023-05-16T06:29:20.046Z,32.98
2023-05-16T06:30:19.022Z,35.69
2023-05-16T06:31:19.029Z,44.83
2023-05-16T06:32:19.995Z,53.01
2023-05-16T06:33:19.076Z,60.01
2023-05-16T06:34:20.080Z,73.26
2023-05-16T06:35:19.147Z,81.08
2023-05-16T06:36:20.171Z,85.70
2023-05-16T06:37:19.182Z,95.99
2023-05-16T06:38:19.266Z,94.00
2023-05-16T06:39:20.236Z,101.22
2023-05-16T06:40:20.280Z,109.90
2023-05-16T06:41:20.251Z,112.70
2023-05-16T06:42:19.386Z,123.53
2023-05-16T06:43:20.243Z,126.52
2023-05-16T06:44:20.246Z,128.28
2023-05-16T06:45:20.297Z,131.63
2023-05-16T06:46:20.352Z,140.41
2023-05-16T06:47:19.340Z,137.12
2023-05-16T06:48:20.415Z,143.71
2023-05-16T06:49:19.456Z,151.38
2023-05-16T06:50:19.491Z,149.73
2023-05-16T06:51:20.579Z,153.70
2023-05-16T06:52:19.605Z,163.69
2023-05-16T06:53:20.858Z,160.13
2023-05-16T06:54:20.737Z,167.18
2023-05-16T06:55:19.855Z,169.62
2023-05-16T06:56:20.851Z,171.25
2023-05-16T06:57:19.911Z,177.39
2023-05-16T06:58:21.342Z,182.94
2023-05-16T06:59:20.036Z,185.70
2023-05-16T07:00:20.160Z,182.82
2023-05-16T07:01:21.303Z,185.04
2023-05-16T07:02:20.241Z,176.15
2023-05-16T07:03:20.416Z,172.14
2023-05-16T07:04:21.362Z,146.65
2023-05-16T07:05:21.332Z,153.77
2023-05-16T07:06:21.313Z,132.57
2023-05-16T07:07:21.347Z,134.43
2023-05-16T07:08:21.410Z,129.30
2023-05-16T07:09:20.359Z,129.58
2023-05-16T07:10:21.375Z,126.08
2023-05-16T07:11:21.400Z,113.11
2023-05-16T07:12:21.403Z,95.44
2023-05-16T07:13:21.450Z,77.74
2023-05-16T07:14:22.491Z,69.90
2023-05-16T07:15:20.545Z,76.41
2023-05-16T07:16:21.666Z,78.80
2023-05-16T07:17:21.756Z,74.01
2023-05-16T07:18:21.719Z,70.43
2023-05-16T07:19:21.764Z,68.69
2023-05-16T07:20:21.694Z,68.62
2023-05-16T07:21:21.731Z,70.95
2023-05-16T07:22:20.797Z,72.77
2023-05-16T07:23:21.839Z,72.50
2023-05-16T07:24:21.906Z,70.50
2023-05-16T07:25:21.901Z,70.30
2023-05-16T07:26:21.954Z,71.01
2023-05-16T07:27:23.484Z,75.25
2023-05-16T07:28:22.082Z,72.90
2023-05-16T07:29:21.976Z,69.44
2023-05-16T07:30:21.964Z,69.63
2023-05-16T07:31:22.017Z,61.91
2023-05-16T07:32:21.014Z,60.14
2023-05-16T07:33:22.149Z,56.64
2023-05-16T07:34:21.938Z,46.92
2023-05-16T07:35:20.969Z,41.12
2023-05-16T07:36:20.929Z,36.96
2023-05-16T07:37:21.911Z,43.54
2023-05-16T07:38:21.930Z,44.40
2023-05-16T07:39:21.890Z,33.82
2023-05-16T07:40:21.873Z,42.72
2023-05-16T07:41:21.872Z,45.91
2023-05-16T07:42:20.871Z,69.13
2023-05-16T07:43:20.862Z,76.20
2023-05-16T07:44:21.863Z,74.25
2023-05-16T07:45:21.845Z,72.61
2023-05-16T07:46:20.944Z,87.81
2023-05-16T07:47:20.846Z,104.84
2023-05-16T07:48:22.095Z,103.22
2023-05-16T07:49:22.074Z,109.32
2023-05-16T07:50:20.798Z,122.69
2023-05-16T07:51:21.806Z,130.16
2023-05-16T07:52:21.788Z,131.67
2023-05-16T07:53:21.844Z,129.28
2023-05-16T07:54:20.814Z,140.07
2023-05-16T07:55:21.790Z,141.52
2023-05-16T07:56:21.786Z,145.91
2023-05-16T07:57:21.670Z,148.82
2023-05-16T07:58:20.759Z,148.36
2023-05-16T07:59:21.894Z,148.20
2023-05-16T08:00:21.824Z,152.64
2023-05-16T08:01:21.831Z,149.57
2023-05-16T08:02:21.893Z,147.76
2023-05-16T08:03:22.082Z,153.50
2023-05-16T08:04:21.911Z,161.10
2023-05-16T08:05:20.957Z,165.33
2023-05-16T08:06:21.922Z,163.36
2023-05-16T08:07:21.928Z,166.83
2023-05-16T08:08:20.939Z,167.90
2023-05-16T08:09:21.937Z,163.60
2023-05-16T08:10:21.940Z,166.39
2023-05-16T08:11:20.926Z,163.51
2023-05-16T08:12:21.948Z,168.34
2023-05-16T08:13:22.015Z,167.43
2023-05-16T08:14:20.934Z,171.54
2023-05-16T08:15:21.014Z,172.42
2023-05-16T08:16:22.009Z,169.88
2023-05-16T08:17:21.953Z,170.32
2023-05-16T08:18:22.474Z,166.28
2023-05-16T08:19:22.047Z,164.80
2023-05-16T08:20:21.957Z,167.05
2023-05-16T08:21:22.057Z,171.12
2023-05-16T08:22:21.963Z,167.07
2023-05-16T08:23:21.955Z,175.15
2023-05-16T08:24:21.965Z,171.68
2023-05-16T08:25:21.980Z,165.18
2023-05-16T08:26:22.009Z,164.50
2023-05-16T08:27:20.966Z,163.14
2023-05-16T08:28:21.973Z,158.35
2023-05-16T08:29:21.968Z,159.96
2023-05-16T08:30:22.009Z,160.28
2023-05-16T08:31:22.098Z,156.35
2023-05-16T08:32:20.986Z,156.87
2023-05-16T08:33:21.047Z,111.95
2023-05-16T08:34:20.995Z,86.60
2023-05-16T08:35:22.037Z,68.22
2023-05-16T08:36:21.136Z,55.69
2023-05-16T08:37:22.198Z,31.90
2023-05-16T08:38:22.202Z,31.77
2023-05-16T08:39:22.248Z,37.07
2023-05-16T08:40:22.309Z,25.00
2023-05-16T08:41:22.252Z,31.24
2023-05-16T08:42:22.289Z,41.75
2023-05-16T08:43:22.867Z,42.75
2023-05-16T08:44:22.416Z,45.01
2023-05-16T08:45:22.492Z,38.10
2023-05-16T08:46:22.590Z,36.45
2023-05-16T08:47:21.711Z,47.95
2023-05-16T08:48:21.715Z,37.41
2023-05-16T08:49:22.736Z,37.37
2023-05-16T08:50:21.822Z,44.82
2023-05-16T08:51:22.834Z,27.17
2023-05-16T08:52:22.884Z,34.81
2023-05-16T08:53:22.965Z,33.10
2023-05-16T08:54:22.995Z,54.02
2023-05-16T08:55:23.065Z,68.30
2023-05-16T08:56:23.085Z,72.08
2023-05-16T08:57:23.156Z,79.15
2023-05-16T08:58:23.438Z,65.96
2023-05-16T08:59:23.338Z,29.30
2023-05-16T09:00:23.346Z,25.00
2023-05-16T09:01:23.444Z,24.37
2023-05-16T09:02:23.380Z,36.25
2023-05-16T09:03:22.335Z,37.38
2023-05-16T09:04:23.500Z,35.99
2023-05-16T09:05:23.365Z,24.65
2023-05-16T09:06:23.415Z,26.56
2023-05-16T09:07:22.361Z,36.80
2023-05-16T09:08:23.412Z,37.59
2023-05-16T09:09:23.431Z,45.70
2023-05-16T09:10:22.446Z,70.60
2023-05-16T09:11:23.473Z,69.72
2023-05-16T09:12:23.457Z,79.56
2023-05-16T09:13:22.385Z,74.80
2023-05-16T09:14:23.574Z,72.44
2023-05-16T09:15:23.524Z,93.34
2023-05-16T09:16:22.718Z,78.39
2023-05-16T09:17:32.228Z,55.88
2023-05-16T09:18:23.702Z,56.15
2023-05-16T09:19:23.641Z,56.53
2023-05-16T09:20:23.597Z,59.21
2023-05-16T09:21:22.677Z,65.23
2023-05-16T09:22:23.673Z,58.12
2023-05-16T09:23:23.581Z,68.07
2023-05-16T09:24:23.560Z,106.52
2023-05-16T09:25:30.192Z,120.39
2023-05-16T09:26:23.722Z,121.10
2023-05-16T09:27:23.545Z,122.57
2023-05-16T09:28:23.591Z,127.97
2023-05-16T09:29:23.627Z,144.07
2023-05-16T09:30:22.511Z,164.40
2023-05-16T09:31:23.640Z,182.60
2023-05-16T09:32:23.509Z,185.53
2023-05-16T09:33:23.515Z,192.66
2023-05-16T09:34:23.508Z,196.41
2023-05-16T09:35:39.870Z,202.79
2023-05-16T09:36:23.542Z,203.08
2023-05-16T09:37:22.472Z,204.16
2023-05-16T09:38:23.468Z,200.90
2023-05-16T09:39:22.449Z,189.82
2023-05-16T09:40:23.458Z,188.73
2023-05-16T09:41:22.506Z,200.81
2023-05-16T09:42:23.435Z,211.41
2023-05-16T09:43:23.448Z,221.58
2023-05-16T09:44:23.424Z,224.54
2023-05-16T09:45:23.473Z,230.35
2023-05-16T09:46:23.440Z,237.03
2023-05-16T09:47:23.433Z,242.19
2023-05-16T09:48:22.407Z,239.90
2023-05-16T09:49:23.901Z,244.21
2023-05-16T09:50:23.433Z,247.35
2023-05-16T09:51:23.385Z,248.23
2023-05-16T09:52:22.364Z,249.44
2023-05-16T09:53:23.371Z,248.37
2023-05-16T09:54:23.390Z,249.11
2023-05-16T09:55:23.364Z,249.13
2023-05-16T09:56:23.337Z,247.23
2023-05-16T09:57:23.418Z,245.59
2023-05-16T09:58:22.330Z,245.04
2023-05-16T09:59:23.349Z,248.09
2023-05-16T10:00:22.320Z,245.64
2023-05-16T10:01:23.351Z,246.44
2023-05-16T10:02:23.348Z,248.66
2023-05-16T10:03:23.376Z,247.55
2023-05-16T10:04:22.386Z,248.57
2023-05-16T10:05:23.271Z,247.78
2023-05-16T10:06:23.299Z,247.77
2023-05-16T10:07:23.263Z,246.80
2023-05-16T10:08:23.255Z,245.23
2023-05-16T10:09:23.270Z,243.39
2023-05-16T10:10:23.321Z,244.29
2023-05-16T10:11:23.226Z,245.99
2023-05-16T10:12:22.230Z,249.25
2023-05-16T10:13:23.535Z,245.89
2023-05-16T10:14:23.203Z,244.36
2023-05-16T10:15:22.235Z,245.48
2023-05-16T10:16:22.231Z,239.96
2023-05-16T10:17:22.179Z,242.37
2023-05-16T10:18:22.196Z,239.34
2023-05-16T10:19:23.368Z,242.74
2023-05-16T10:20:23.215Z,242.79
2023-05-16T10:21:23.259Z,241.56
2023-05-16T10:22:23.285Z,241.12
2023-05-16T10:23:22.320Z,240.05
2023-05-16T10:24:22.356Z,240.10
2023-05-16T10:25:22.370Z,242.69
2023-05-16T10:26:23.389Z,240.66
2023-05-16T10:27:23.430Z,238.87
2023-05-16T10:28:22.453Z,242.43
2023-05-16T10:29:22.554Z,238.72
2023-05-16T10:30:23.540Z,240.50
2023-05-16T10:31:23.581Z,241.34
2023-05-16T10:32:23.748Z,239.12
2023-05-16T10:33:23.660Z,242.62
2023-05-16T10:34:23.658Z,240.87
2023-05-16T10:35:22.718Z,240.27
2023-05-16T10:36:22.745Z,238.67
2023-05-16T10:37:23.764Z,237.11
2023-05-16T10:38:23.815Z,235.89
2023-05-16T10:39:23.880Z,238.80
2023-05-16T10:40:23.909Z,238.09
2023-05-16T10:41:22.933Z,238.97
2023-05-16T10:42:22.991Z,241.40
2023-05-16T10:43:23.030Z,238.97
2023-05-16T10:44:24.079Z,238.68
2023-05-16T10:45:23.150Z,233.84
2023-05-16T10:46:24.172Z,236.99
2023-05-16T10:47:24.278Z,236.30
2023-05-16T10:48:23.355Z,232.04
2023-05-16T10:49:24.416Z,238.37
2023-05-16T10:50:24.423Z,236.00
2023-05-16T10:51:23.380Z,234.96
2023-05-16T10:52:24.428Z,240.32
2023-05-16T10:53:24.463Z,235.54
2023-05-16T10:54:24.512Z,235.97
2023-05-16T10:55:23.565Z,233.62
2023-05-16T10:56:24.582Z,238.49
2023-05-16T10:57:24.650Z,234.94
2023-05-16T10:58:23.705Z,235.91
2023-05-16T10:59:23.726Z,236.51
2023-05-16T11:00:24.782Z,237.12
2023-05-16T11:01:24.250Z,235.58
2023-05-16T11:02:24.969Z,237.14
2023-05-16T11:03:24.993Z,237.75
2023-05-16T11:04:24.939Z,235.93
2023-05-16T11:05:23.990Z,236.78
2023-05-16T11:06:25.006Z,235.84
2023-05-16T11:07:24.124Z,234.24
2023-05-16T11:08:24.117Z,235.41
2023-05-16T11:09:25.162Z,234.02
2023-05-16T11:10:25.197Z,233.36
2023-05-16T11:11:24.237Z,235.63
2023-05-16T11:12:25.305Z,233.60
2023-05-16T11:13:24.328Z,230.85
2023-05-16T11:14:24.361Z,233.95
2023-05-16T11:15:24.585Z,232.52
2023-05-16T11:16:24.489Z,235.27
2023-05-16T11:17:25.621Z,232.33
2023-05-16T11:18:25.532Z,233.61
2023-05-16T11:19:25.612Z,235.01
2023-05-16T11:20:24.626Z,230.00
2023-05-16T11:21:25.646Z,235.57
2023-05-16T11:22:24.742Z,232.15
2023-05-16T11:23:25.740Z,232.99
2023-05-16T11:24:25.794Z,230.88
2023-05-16T11:25:26.000Z,231.69
2023-05-16T11:26:24.858Z,233.99
2023-05-16T11:27:25.904Z,234.35
2023-05-16T11:28:25.945Z,235.29
2023-05-16T11:29:25.021Z,232.33
2023-05-16T11:30:25.020Z,235.88
2023-05-16T11:31:26.142Z,229.68
2023-05-16T11:32:26.189Z,231.03
2023-05-16T11:33:25.178Z,235.00
2023-05-16T11:34:25.190Z,287.52
2023-05-16T11:35:25.193Z,240.55
2023-05-16T11:36:26.245Z,217.85
2023-05-16T11:37:25.933Z,215.32
2023-05-16T11:38:26.300Z,220.34
2023-05-16T11:39:26.552Z,219.34
2023-05-16T11:40:25.374Z,217.61
2023-05-16T11:41:26.358Z,214.59
2023-05-16T11:42:26.390Z,219.63
2023-05-16T11:43:25.418Z,218.85
2023-05-16T11:44:25.450Z,217.89
2023-05-16T11:45:25.612Z,217.35
2023-05-16T11:46:25.500Z,215.69
2023-05-16T11:47:26.534Z,215.72
2023-05-16T11:48:35.592Z,214.96
2023-05-16T11:49:26.583Z,215.04
2023-05-16T11:50:25.506Z,215.10
2023-05-16T11:51:26.496Z,213.72
2023-05-16T11:52:26.496Z,211.80
2023-05-16T11:53:26.473Z,212.92
2023-05-16T11:54:25.479Z,214.20
2023-05-16T11:55:40.585Z,214.81
2023-05-16T11:56:26.473Z,215.00
2023-05-16T11:57:25.440Z,215.62
2023-05-16T11:58:26.439Z,215.23
2023-05-16T11:59:25.453Z,215.04
2023-05-16T12:00:26.453Z,212.81
2023-05-16T12:01:28.250Z,211.03
2023-05-16T12:02:25.546Z,211.19
2023-05-16T12:03:26.469Z,211.90
2023-05-16T12:04:26.588Z,213.45
2023-05-16T12:05:25.676Z,212.12
2023-05-16T12:06:26.394Z,213.44
2023-05-16T12:07:26.381Z,212.17
2023-05-16T12:08:25.375Z,211.47
2023-05-16T12:09:25.362Z,209.08
2023-05-16T12:10:26.638Z,210.27
2023-05-16T12:11:26.332Z,213.25
2023-05-16T12:12:25.332Z,212.51
2023-05-16T12:13:26.346Z,211.60
2023-05-16T12:14:25.336Z,209.99
2023-05-16T12:15:25.456Z,210.54
2023-05-16T12:16:26.354Z,211.74
2023-05-16T12:17:26.330Z,213.15
2023-05-16T12:18:26.330Z,210.58
2023-05-16T12:19:25.445Z,211.84
2023-05-16T12:20:26.400Z,209.73
2023-05-16T12:21:25.286Z,209.17
2023-05-16T12:22:26.289Z,208.77
2023-05-16T12:23:25.246Z,208.70
2023-05-16T12:24:25.251Z,210.28
2023-05-16T12:25:25.586Z,210.48
2023-05-16T12:26:25.230Z,208.23
2023-05-16T12:27:25.282Z,211.48
2023-05-16T12:28:26.342Z,208.04
2023-05-16T12:29:25.406Z,208.47
2023-05-16T12:30:25.697Z,212.26
2023-05-16T12:31:31.662Z,208.85
2023-05-16T12:32:26.605Z,209.03
2023-05-16T12:33:26.524Z,209.37
2023-05-16T12:34:26.503Z,207.95
2023-05-16T12:35:25.464Z,211.00
2023-05-16T12:36:26.590Z,207.01
2023-05-16T12:37:25.539Z,204.53
2023-05-16T12:38:26.524Z,206.37
2023-05-16T12:39:26.485Z,204.91
2023-05-16T12:40:26.833Z,207.30
2023-05-16T12:41:26.446Z,204.65
2023-05-16T12:42:26.474Z,204.03
2023-05-16T12:43:25.415Z,202.70